Terminal Aerodrome Forecast
Issued by NWS

Home | Current Version | Previous Version | Graphics & Text | Print | Product List | Glossary On
Versions: 1 2 3 4 5 6 7 8 9 10 11 12 13 14 15
000
FTUS43 KGRB 252320
TAFMTW
TAF
KMTW 252320Z 2600/2624 09005KT P6SM SCT200
     FM260900 VRB03KT 3SM BR SCT200
      TEMPO 2609/2612 1SM BR
     FM261300 21003KT P6SM SCT250=

USA.gov is the U.S. government's official web portal to all federal, state and local government web resources and services.